Shawnee Mission, KS (66224)

11:33 PM CDT on September 01, 2014 (GMT -0500)
Blue Hills Country Club | Change Station
CLOSE
Current Station
Personal Weather Station
Location: Kansas City, MO
Elevation: 955 ft
Nearby Weather Stations

Elev 955 ft 38.89 °N, 94.60 °W | Updated 3 minutes ago

Overcast
Overcast
64.8 °F
Feels Like 64.8 °F
N
0.0
Wind Variable Wind from SW

Today
High -- | Low -- °F
--% Chance of Precip.
Yesterday
High -- | Low -- °F
Precip. -- in
6:47 AM 7:48 PM
Waxing Crescent, 47% visible
Pressure 29.89 in
Visibility 10.0 miles
Clouds Scattered Clouds 1700 ft
Scattered Clouds 3200 ft
Overcast 8000 ft
Dew Point 63 °F
Humidity 95%
Rainfall 1.11 in
Snow Depth Not available.
UV 0 out of 12
Pollen 3.90 out of 12
Air Quality Not available.
Flu Activity Not available.
SPECI KOJC 020420Z AUTO 08006KT 10SM SCT017 SCT032 OVC080 21/21 A2989 RMK AO2 LTG DSNT E AND SE RAB0359E19 PRESFR P0003 T02110211

More Conditions Fewer Conditions

Pressure 29.89 in
Visibility 10.0 miles
Clouds Scattered Clouds 1700 ft
Scattered Clouds 3200 ft
Overcast 8000 ft
Dew Point 63 °F
Humidity 95%
Rainfall 1.11 in
Snow Depth Not available.
UV 0 out of 12
Pollen 3.90 out of 12
Air Quality Not available.
Flu Activity Not available.
SPECI KOJC 020420Z AUTO 08006KT 10SM SCT017 SCT032 OVC080 21/21 A2989 RMK AO2 LTG DSNT E AND SE RAB0359E19 PRESFR P0003 T02110211

More Conditions Fewer Conditions

10-Day Weather Forecast

Almanac

Astronomy

Sep. 01, 2014 Rise Set
Actual Time 6:47 AM CDT 7:48 PM CDT
Civil Twilight 6:20 AM CDT 8:16 PM CDT
Nautical Twilight 5:47 AM CDT 8:48 PM CDT
Astronomical Twilight 5:13 AM CDT 9:22 PM CDT
Moon 1:30 PM CDT (9/1) 11:54 PM CDT (9/1)
Length of Visible Light 13h 55m
Length of Day
13h 01m
Tomorrow will be 2m 25s shorter.
Waxing Crescent, 47% of the Moon is Illuminated
Sep 2
Waxing Crescent
Sep 2
First Quarter
Sep 8
Full
Sep 15
Last Quarter
Sep 24
New

Today's Extremes

State Highs State Lows

Community

WunderPhotos

Upload Photos

1,749,566 photos uploaded!

WunderBlogs® & News

Nearby

Snow Depth

Station Depth Elevation
No new snow has been reported.

Earthquake Activity

City Distance Mag. Time & Date
No recent earthquake activity has been reported nearby.
Minimum magnitude displayed is 2.5.

Coastal Water Temperatures

Place Temperature
No Stations Reporting

Nearby Weather Stations